createdAt,value
2017-11-08T00:00:22.821Z,63.31
2017-11-08T00:00:58.373Z,63.15
2017-11-08T00:01:30.134Z,63.34
2017-11-08T00:02:02.018Z,63.41
2017-11-08T00:02:33.667Z,63.64
2017-11-08T00:03:05.313Z,63.65
2017-11-08T00:03:36.965Z,63.48
2017-11-08T00:04:08.659Z,63.57
2017-11-08T00:04:40.312Z,63.61
2017-11-08T00:05:11.962Z,63.83
2017-11-08T00:05:43.609Z,63.88
2017-11-08T00:06:15.254Z,63.70
2017-11-08T00:06:46.901Z,63.92
2017-11-08T00:07:18.541Z,63.93
2017-11-08T00:07:50.189Z,63.94
2017-11-08T00:08:21.845Z,64.27
2017-11-08T00:08:53.735Z,64.15
2017-11-08T00:09:25.386Z,63.92
2017-11-08T00:09:57.081Z,64.23
2017-11-08T00:10:28.972Z,64.35
2017-11-08T00:11:00.671Z,64.17
2017-11-08T00:11:32.558Z,64.38
2017-11-08T00:12:04.438Z,64.34
2017-11-08T00:12:36.150Z,64.40
2017-11-08T00:13:07.805Z,64.62
2017-11-08T00:13:39.450Z,64.53
2017-11-08T00:14:11.121Z,64.69
2017-11-08T00:14:42.773Z,64.62
2017-11-08T00:15:14.421Z,64.72
2017-11-08T00:15:46.308Z,64.64
2017-11-08T00:16:18.011Z,65.02
2017-11-08T00:16:49.899Z,64.93
2017-11-08T00:17:21.773Z,64.99
2017-11-08T00:17:55.266Z,65.13
2017-11-08T00:18:26.912Z,64.77
2017-11-08T00:18:58.562Z,64.99
2017-11-08T00:19:30.217Z,65.02
2017-11-08T00:20:01.897Z,65.33
2017-11-08T00:20:33.764Z,65.30
2017-11-08T00:21:05.430Z,65.27
2017-11-08T00:21:42.710Z,65.17
2017-11-08T00:22:18.232Z,65.16
2017-11-08T00:22:49.878Z,65.05
2017-11-08T00:23:21.538Z,65.18
2017-11-08T00:23:55.068Z,65.31
2017-11-08T00:24:26.720Z,65.53
2017-11-08T00:24:59.313Z,65.58
2017-11-08T00:25:30.954Z,65.56
2017-11-08T00:26:02.597Z,65.87
2017-11-08T00:26:34.255Z,65.97
2017-11-08T00:27:05.954Z,65.84
2017-11-08T00:27:37.605Z,65.68
2017-11-08T00:28:09.249Z,66.03
2017-11-08T00:28:41.074Z,65.99
2017-11-08T00:29:12.734Z,65.72
2017-11-08T00:29:44.378Z,66.02
2017-11-08T00:30:16.022Z,66.18
2017-11-08T00:30:47.673Z,65.99
2017-11-08T00:31:19.317Z,66.42
2017-11-08T00:31:50.974Z,66.38
2017-11-08T00:32:22.855Z,66.25
2017-11-08T00:32:54.828Z,66.57
2017-11-08T00:33:26.489Z,66.27
2017-11-08T00:33:58.137Z,66.26
2017-11-08T00:34:29.782Z,66.55
2017-11-08T00:35:01.426Z,66.56
2017-11-08T00:35:33.082Z,66.53
2017-11-08T00:36:04.730Z,66.58
2017-11-08T00:36:36.624Z,66.58
2017-11-08T00:37:08.466Z,66.54
2017-11-08T00:37:40.215Z,66.60
2017-11-08T00:38:12.171Z,66.60
2017-11-08T00:38:43.882Z,66.58
2017-11-08T00:39:15.735Z,66.79
2017-11-08T00:39:47.386Z,66.82
2017-11-08T00:40:19.230Z,66.85
2017-11-08T00:40:50.991Z,66.83
2017-11-08T00:41:22.682Z,66.89
2017-11-08T00:41:54.381Z,66.93
2017-11-08T00:42:26.026Z,66.94
2017-11-08T00:42:57.690Z,66.94
2017-11-08T00:43:29.353Z,67.02
2017-11-08T00:44:00.998Z,66.98
2017-11-08T00:44:32.647Z,67.01
2017-11-08T00:45:04.430Z,66.93
2017-11-08T00:45:36.316Z,67.04
2017-11-08T00:46:07.966Z,67.15
2017-11-08T00:46:39.623Z,67.08
2017-11-08T00:47:11.322Z,66.98
2017-11-08T00:47:42.973Z,66.97
2017-11-08T00:48:14.617Z,67.00
2017-11-08T00:48:46.266Z,67.08
2017-11-08T00:49:17.913Z,67.08
2017-11-08T00:49:49.594Z,67.05
2017-11-08T00:50:21.464Z,66.98
2017-11-08T00:50:53.119Z,67.03
2017-11-08T00:51:24.766Z,66.98
2017-11-08T00:51:56.422Z,67.04
2017-11-08T00:52:28.069Z,67.12
2017-11-08T00:53:02.438Z,66.94
2017-11-08T00:53:34.090Z,66.99
2017-11-08T00:54:05.742Z,66.94
2017-11-08T00:54:37.398Z,66.96
2017-11-08T00:55:09.045Z,67.00
2017-11-08T00:55:40.694Z,66.90
2017-11-08T00:56:12.485Z,67.00
2017-11-08T00:56:44.239Z,66.90
2017-11-08T00:57:16.812Z,66.92
2017-11-08T00:57:48.469Z,66.87
2017-11-08T00:58:20.354Z,66.93
2017-11-08T00:58:52.031Z,66.86
2017-11-08T00:59:23.925Z,66.80
2017-11-08T00:59:55.626Z,66.85
2017-11-08T01:00:27.575Z,66.79
2017-11-08T01:01:00.162Z,66.81
2017-11-08T01:01:31.807Z,66.83
2017-11-08T01:02:03.453Z,66.82
2017-11-08T01:02:35.102Z,66.79
2017-11-08T01:03:06.753Z,66.73
2017-11-08T01:03:38.639Z,66.71
2017-11-08T01:04:10.339Z,66.74
2017-11-08T01:04:41.994Z,66.73
2017-11-08T01:05:13.645Z,66.79
2017-11-08T01:05:45.531Z,66.80
2017-11-08T01:06:17.188Z,66.77
2017-11-08T01:06:48.841Z,66.73
2017-11-08T01:07:20.481Z,66.65
2017-11-08T01:07:52.129Z,66.84
2017-11-08T01:08:23.778Z,67.04
2017-11-08T01:08:55.429Z,66.79
2017-11-08T01:09:27.320Z,66.82
2017-11-08T01:09:59.280Z,66.94
2017-11-08T01:10:30.929Z,66.90
2017-11-08T01:11:02.574Z,66.92
2017-11-08T01:11:34.221Z,66.86
2017-11-08T01:12:05.866Z,66.98
2017-11-08T01:12:37.513Z,67.07
2017-11-08T01:13:09.202Z,66.92
2017-11-08T01:13:40.886Z,66.87
2017-11-08T01:14:12.578Z,67.04
2017-11-08T01:14:44.365Z,67.02
2017-11-08T01:15:16.014Z,66.91
2017-11-08T01:15:47.701Z,66.94
2017-11-08T01:16:19.599Z,67.05
2017-11-08T01:16:51.257Z,67.10
2017-11-08T01:17:22.907Z,67.00
2017-11-08T01:17:54.549Z,67.55
2017-11-08T01:18:26.199Z,67.54
2017-11-08T01:18:57.862Z,67.43
2017-11-08T01:19:29.742Z,67.23
2017-11-08T01:20:01.394Z,67.39
2017-11-08T01:20:33.081Z,67.16
2017-11-08T01:21:04.989Z,67.26
2017-11-08T01:21:36.637Z,67.19
2017-11-08T01:22:08.290Z,67.09
2017-11-08T01:22:39.942Z,67.12
2017-11-08T01:23:11.586Z,67.06
2017-11-08T01:23:43.505Z,66.95
2017-11-08T01:24:15.154Z,66.92
2017-11-08T01:24:46.806Z,66.93
2017-11-08T01:25:18.489Z,67.05
2017-11-08T01:25:50.134Z,66.90
2017-11-08T01:26:22.023Z,66.81
2017-11-08T01:26:53.673Z,66.97
2017-11-08T01:27:25.327Z,66.95
2017-11-08T01:27:56.970Z,67.05
2017-11-08T01:28:28.621Z,66.94
2017-11-08T01:29:00.490Z,67.01
2017-11-08T01:29:32.180Z,66.95
2017-11-08T01:30:03.829Z,66.92
2017-11-08T01:30:35.484Z,66.81
2017-11-08T01:31:07.134Z,66.76
2017-11-08T01:31:38.778Z,66.72
2017-11-08T01:32:10.666Z,66.71
2017-11-08T01:32:42.647Z,66.83
2017-11-08T01:33:14.297Z,66.68
2017-11-08T01:33:45.942Z,66.60
2017-11-08T01:34:17.591Z,66.59
2017-11-08T01:34:49.473Z,66.41
2017-11-08T01:35:23.061Z,66.50
2017-11-08T01:35:54.709Z,66.49
2017-11-08T01:36:26.730Z,66.45
2017-11-08T01:37:04.146Z,66.42
2017-11-08T01:37:39.629Z,66.47
2017-11-08T01:38:13.206Z,66.38
2017-11-08T01:38:44.850Z,66.56
2017-11-08T01:39:16.494Z,66.64
2017-11-08T01:39:48.142Z,66.51
2017-11-08T01:40:19.789Z,66.52
2017-11-08T01:40:51.477Z,66.68
2017-11-08T01:41:25.154Z,66.64
2017-11-08T01:41:56.798Z,66.57
2017-11-08T01:42:28.483Z,66.70
2017-11-08T01:43:00.133Z,66.72
2017-11-08T01:43:31.777Z,66.73
2017-11-08T01:44:03.422Z,66.80
2017-11-08T01:44:40.887Z,66.67
2017-11-08T01:45:12.538Z,66.64
2017-11-08T01:45:44.189Z,66.55
2017-11-08T01:46:16.807Z,66.54
2017-11-08T01:46:48.518Z,66.42
2017-11-08T01:47:20.170Z,66.41
2017-11-08T01:47:51.822Z,66.32
2017-11-08T01:48:23.473Z,66.40
2017-11-08T01:48:55.251Z,66.28
2017-11-08T01:49:27.200Z,66.33
2017-11-08T01:49:58.850Z,66.31
2017-11-08T01:50:34.365Z,66.17
2017-11-08T01:51:06.119Z,66.33
2017-11-08T01:51:37.768Z,66.25
2017-11-08T01:52:12.475Z,66.19
2017-11-08T01:52:44.424Z,66.21
2017-11-08T01:53:16.073Z,66.26
2017-11-08T01:53:47.717Z,66.42
2017-11-08T01:54:19.362Z,66.30
2017-11-08T01:54:51.009Z,66.27
2017-11-08T01:55:22.658Z,66.14
2017-11-08T01:55:54.301Z,66.26
2017-11-08T01:56:25.953Z,66.26
2017-11-08T01:56:57.601Z,66.19
2017-11-08T01:57:29.321Z,66.10
2017-11-08T01:58:01.152Z,66.16
2017-11-08T01:58:32.809Z,66.05
2017-11-08T01:59:04.453Z,66.09
2017-11-08T01:59:36.102Z,66.07
2017-11-08T02:00:07.750Z,65.98
2017-11-08T02:00:39.397Z,66.24
2017-11-08T02:01:11.041Z,66.10
2017-11-08T02:01:42.952Z,66.30
2017-11-08T02:02:14.606Z,66.15
2017-11-08T02:02:46.249Z,66.17
2017-11-08T02:03:17.949Z,66.14
2017-11-08T02:03:49.828Z,66.08
2017-11-08T02:04:21.477Z,66.09
2017-11-08T02:04:53.129Z,65.96
2017-11-08T02:05:24.778Z,66.04
2017-11-08T02:05:56.425Z,65.99
2017-11-08T02:06:28.066Z,66.10
2017-11-08T02:06:59.713Z,66.11
2017-11-08T02:07:31.357Z,66.09
2017-11-08T02:08:03.005Z,66.12
2017-11-08T02:08:34.658Z,66.01
2017-11-08T02:09:07.162Z,66.13
2017-11-08T02:09:38.817Z,66.11
2017-11-08T02:10:10.474Z,65.99
2017-11-08T02:10:42.165Z,66.13
2017-11-08T02:11:13.990Z,66.19
2017-11-08T02:11:45.684Z,66.16
2017-11-08T02:12:17.338Z,66.17
2017-11-08T02:12:48.986Z,66.15
2017-11-08T02:13:20.690Z,66.23
2017-11-08T02:13:52.533Z,66.25
2017-11-08T02:14:24.197Z,66.21
2017-11-08T02:14:56.149Z,66.19
2017-11-08T02:15:27.805Z,66.30
2017-11-08T02:15:59.449Z,66.32
2017-11-08T02:16:31.102Z,66.32
2017-11-08T02:17:02.745Z,66.32
2017-11-08T02:17:49.412Z,66.35
2017-11-08T02:18:22.005Z,66.41
2017-11-08T02:18:54.482Z,66.38
2017-11-08T02:19:26.133Z,66.35
2017-11-08T02:19:57.778Z,66.37
2017-11-08T02:20:29.425Z,66.30
2017-11-08T02:21:01.118Z,66.35
2017-11-08T02:21:32.766Z,66.40
2017-11-08T02:22:04.410Z,66.38
2017-11-08T02:22:36.058Z,66.37
2017-11-08T02:23:07.701Z,66.38
2017-11-08T02:23:39.624Z,66.38
2017-11-08T02:24:11.572Z,66.36
2017-11-08T02:24:49.673Z,66.34
2017-11-08T02:25:21.317Z,66.38
2017-11-08T02:25:52.969Z,66.36
2017-11-08T02:26:30.177Z,66.31
2017-11-08T02:27:05.734Z,66.25
2017-11-08T02:27:37.398Z,66.26
2017-11-08T02:28:09.962Z,66.29
2017-11-08T02:28:41.910Z,66.27
2017-11-08T02:29:13.562Z,66.27
2017-11-08T02:29:45.215Z,66.27
2017-11-08T02:30:16.862Z,66.32
2017-11-08T02:30:48.514Z,66.30
2017-11-08T02:31:20.165Z,66.25
2017-11-08T02:31:51.816Z,66.27
2017-11-08T02:32:23.523Z,66.26
2017-11-08T02:32:55.165Z,66.28
2017-11-08T02:33:26.814Z,66.28
2017-11-08T02:33:58.457Z,66.27
2017-11-08T02:34:30.106Z,66.27
2017-11-08T02:35:01.810Z,66.32
2017-11-08T02:35:33.563Z,66.28
2017-11-08T02:36:05.516Z,66.27
2017-11-08T02:36:37.169Z,66.23
2017-11-08T02:37:08.818Z,66.23
2017-11-08T02:37:42.311Z,66.25
2017-11-08T02:38:14.840Z,66.27
2017-11-08T02:38:46.793Z,66.28
2017-11-08T02:39:18.486Z,66.23
2017-11-08T02:39:50.141Z,66.25
2017-11-08T02:40:21.794Z,66.30
2017-11-08T02:40:53.669Z,66.26
2017-11-08T02:41:25.324Z,66.29
2017-11-08T02:41:56.973Z,66.25
2017-11-08T02:42:28.620Z,66.25
2017-11-08T02:43:02.238Z,66.27
2017-11-08T02:43:34.028Z,66.28
2017-11-08T02:44:05.677Z,66.29
2017-11-08T02:44:37.366Z,66.31
2017-11-08T02:45:09.013Z,66.27
2017-11-08T02:45:41.629Z,66.25
2017-11-08T02:46:13.280Z,66.25
2017-11-08T02:46:44.938Z,66.25
2017-11-08T02:47:16.583Z,66.28
2017-11-08T02:47:51.913Z,66.22
2017-11-08T02:48:23.562Z,66.38
2017-11-08T02:48:55.214Z,66.54
2017-11-08T02:49:27.004Z,66.50
2017-11-08T02:49:58.653Z,66.77
2017-11-08T02:50:30.303Z,66.79
2017-11-08T02:51:01.946Z,66.72
2017-11-08T02:51:35.465Z,66.87
2017-11-08T02:52:07.114Z,66.83
2017-11-08T02:52:38.994Z,66.75
2017-11-08T02:53:10.642Z,66.77
2017-11-08T02:53:45.563Z,66.83
2017-11-08T02:54:17.311Z,66.80
2017-11-08T02:54:52.946Z,66.87
2017-11-08T02:55:24.896Z,66.92
2017-11-08T02:55:58.409Z,66.81
2017-11-08T02:56:30.058Z,66.92
2017-11-08T02:57:01.710Z,66.89
2017-11-08T02:57:33.353Z,66.92
2017-11-08T02:58:05.006Z,66.93
2017-11-08T02:58:36.649Z,66.89
2017-11-08T02:59:08.431Z,66.92
2017-11-08T02:59:41.140Z,66.87
2017-11-08T03:00:12.785Z,66.93
2017-11-08T03:00:47.385Z,66.91
2017-11-08T03:01:19.033Z,66.94
2017-11-08T03:01:50.680Z,66.93
2017-11-08T03:02:40.326Z,66.97
2017-11-08T03:03:11.973Z,66.88
2017-11-08T03:03:45.636Z,66.95
2017-11-08T03:04:17.301Z,66.91
2017-11-08T03:04:48.962Z,66.96
2017-11-08T03:05:20.609Z,66.96
2017-11-08T03:05:52.298Z,66.93
2017-11-08T03:06:24.153Z,66.93
2017-11-08T03:06:55.805Z,66.90
2017-11-08T03:07:27.454Z,66.91
2017-11-08T03:07:59.097Z,66.93
2017-11-08T03:08:30.746Z,66.93
2017-11-08T03:09:02.571Z,66.82
2017-11-08T03:09:34.312Z,67.02
2017-11-08T03:10:05.965Z,66.89
2017-11-08T03:10:37.614Z,66.82
2017-11-08T03:11:09.262Z,66.74
2017-11-08T03:11:41.078Z,66.76
2017-11-08T03:12:12.840Z,66.74
2017-11-08T03:12:44.494Z,66.73
2017-11-08T03:13:16.178Z,66.73
2017-11-08T03:13:48.061Z,66.72
2017-11-08T03:14:19.981Z,66.55
2017-11-08T03:14:51.669Z,66.73
2017-11-08T03:15:23.314Z,66.60
2017-11-08T03:15:54.962Z,66.59
2017-11-08T03:16:26.825Z,66.52
2017-11-08T03:16:58.480Z,66.52
2017-11-08T03:17:30.129Z,66.60
2017-11-08T03:18:01.819Z,66.77
2017-11-08T03:18:33.472Z,66.70
2017-11-08T03:19:05.121Z,66.67
2017-11-08T03:19:36.765Z,66.64
2017-11-08T03:20:08.413Z,66.46
2017-11-08T03:20:40.061Z,66.58
2017-11-08T03:21:11.969Z,66.71
2017-11-08T03:21:43.622Z,66.65
2017-11-08T03:22:15.273Z,66.70
2017-11-08T03:22:46.926Z,66.48
2017-11-08T03:23:18.578Z,66.67
2017-11-08T03:23:50.225Z,66.58
2017-11-08T03:24:21.878Z,66.42
2017-11-08T03:24:53.725Z,66.52
2017-11-08T03:25:25.719Z,66.41
2017-11-08T03:25:57.547Z,66.49
2017-11-08T03:26:29.310Z,66.32
2017-11-08T03:27:00.962Z,66.53
2017-11-08T03:27:32.613Z,66.42
2017-11-08T03:28:04.271Z,66.52
2017-11-08T03:28:35.924Z,66.43
2017-11-08T03:29:07.826Z,66.42
2017-11-08T03:29:39.711Z,66.40
2017-11-08T03:30:11.419Z,66.42
2017-11-08T03:30:43.071Z,66.44
2017-11-08T03:31:14.721Z,66.34
2017-11-08T03:31:46.381Z,66.37
2017-11-08T03:32:18.026Z,66.31
2017-11-08T03:32:49.677Z,66.49
2017-11-08T03:33:21.330Z,66.37
2017-11-08T03:33:53.218Z,66.41
2017-11-08T03:34:24.913Z,66.31
2017-11-08T03:34:56.569Z,66.27
2017-11-08T03:35:28.218Z,66.25
2017-11-08T03:36:00.093Z,66.71
2017-11-08T03:36:31.742Z,66.22
2017-11-08T03:37:03.580Z,66.00
2017-11-08T03:37:35.233Z,66.05
2017-11-08T03:38:06.886Z,65.56
2017-11-08T03:38:38.533Z,56.43
2017-11-08T03:39:10.174Z,53.48
2017-11-08T03:39:41.866Z,50.99
2017-11-08T03:40:13.538Z,50.16
2017-11-08T03:40:45.193Z,48.48
2017-11-08T03:41:16.841Z,49.20
2017-11-08T03:41:48.726Z,48.49
2017-11-08T03:42:20.369Z,47.65
2017-11-08T03:42:52.021Z,48.01
2017-11-08T03:43:23.690Z,47.64
2017-11-08T03:43:55.646Z,47.20
2017-11-08T03:44:27.298Z,47.07
2017-11-08T03:44:59.982Z,47.04
2017-11-08T03:45:31.637Z,46.78
2017-11-08T03:46:03.436Z,46.59
2017-11-08T03:46:35.130Z,46.00
2017-11-08T03:47:06.781Z,45.87
2017-11-08T03:47:38.564Z,45.98
2017-11-08T03:48:10.314Z,45.94
2017-11-08T03:48:42.263Z,46.97
2017-11-08T03:49:13.913Z,48.13
2017-11-08T03:49:45.553Z,49.46
2017-11-08T03:50:17.202Z,51.21
2017-11-08T03:50:48.845Z,52.82
2017-11-08T03:51:20.494Z,52.41
2017-11-08T03:51:52.137Z,51.47
2017-11-08T03:52:24.069Z,51.04
2017-11-08T03:52:55.721Z,50.94
2017-11-08T03:53:27.654Z,50.70
2017-11-08T03:53:59.305Z,51.28
2017-11-08T03:54:30.949Z,51.16
2017-11-08T03:55:02.597Z,51.51
2017-11-08T03:55:34.248Z,51.63
2017-11-08T03:56:05.890Z,51.50
2017-11-08T03:56:37.533Z,51.35
2017-11-08T03:57:09.181Z,51.78
2017-11-08T03:57:40.886Z,51.87
2017-11-08T03:58:12.739Z,52.10
2017-11-08T03:58:44.389Z,52.02
2017-11-08T03:59:16.037Z,51.55
2017-11-08T03:59:47.685Z,51.62
2017-11-08T04:00:19.329Z,52.21
2017-11-08T04:00:50.978Z,52.11
2017-11-08T04:01:22.625Z,52.15
2017-11-08T04:01:54.274Z,52.42
2017-11-08T04:02:25.926Z,52.56
2017-11-08T04:02:57.813Z,52.47
2017-11-08T04:03:29.466Z,52.58
2017-11-08T04:04:01.113Z,52.61
2017-11-08T04:04:32.762Z,52.75
2017-11-08T04:05:04.410Z,52.75
2017-11-08T04:05:36.054Z,52.96
2017-11-08T04:06:07.697Z,53.04
2017-11-08T04:06:39.341Z,53.27
2017-11-08T04:07:10.990Z,53.32
2017-11-08T04:07:42.874Z,53.21
2017-11-08T04:08:14.550Z,53.38
2017-11-08T04:08:46.201Z,53.45
2017-11-08T04:09:18.136Z,53.42
2017-11-08T04:09:49.795Z,53.51
2017-11-08T04:10:21.441Z,53.69
2017-11-08T04:10:53.102Z,53.71
2017-11-08T04:11:24.749Z,53.84
2017-11-08T04:11:56.403Z,53.80
2017-11-08T04:12:28.055Z,54.02
2017-11-08T04:12:59.745Z,54.13
2017-11-08T04:13:31.398Z,54.09
2017-11-08T04:14:03.046Z,54.21
2017-11-08T04:14:34.698Z,54.36
2017-11-08T04:15:06.341Z,54.37
2017-11-08T04:15:38.151Z,54.46
2017-11-08T04:16:09.816Z,54.53
2017-11-08T04:16:41.474Z,54.61
2017-11-08T04:17:13.129Z,54.67
2017-11-08T04:17:44.777Z,54.66
2017-11-08T04:18:16.621Z,54.67
2017-11-08T04:18:48.273Z,54.71
2017-11-08T04:19:19.951Z,54.85
2017-11-08T04:19:51.602Z,54.96
2017-11-08T04:20:23.245Z,54.78
2017-11-08T04:20:54.934Z,55.10
2017-11-08T04:21:26.826Z,55.08
2017-11-08T04:21:58.706Z,55.04
2017-11-08T04:22:30.355Z,55.06
2017-11-08T04:23:02.019Z,55.21
2017-11-08T04:23:33.698Z,55.44
2017-11-08T04:24:05.353Z,55.55
2017-11-08T04:24:36.997Z,55.48
2017-11-08T04:25:08.641Z,55.59
2017-11-08T04:25:40.289Z,55.65
2017-11-08T04:26:11.937Z,55.70
2017-11-08T04:26:43.860Z,55.71
2017-11-08T04:27:15.510Z,55.76
2017-11-08T04:27:47.158Z,55.78
2017-11-08T04:28:18.848Z,55.91
2017-11-08T04:28:50.739Z,55.95
2017-11-08T04:29:22.401Z,56.11
2017-11-08T04:29:54.046Z,56.14
2017-11-08T04:30:25.693Z,56.08
2017-11-08T04:30:57.337Z,56.21
2017-11-08T04:31:28.983Z,56.18
2017-11-08T04:32:00.637Z,56.42
2017-11-08T04:32:32.282Z,56.52
2017-11-08T04:33:04.177Z,56.79
2017-11-08T04:33:36.074Z,56.89
2017-11-08T04:34:07.721Z,56.94
2017-11-08T04:34:39.595Z,57.06
2017-11-08T04:35:11.358Z,57.28
2017-11-08T04:35:43.242Z,57.29
2017-11-08T04:36:14.949Z,57.41
2017-11-08T04:36:46.898Z,57.54
2017-11-08T04:37:18.848Z,57.62
2017-11-08T04:37:50.497Z,57.65
2017-11-08T04:38:22.146Z,57.73
2017-11-08T04:38:54.076Z,57.74
2017-11-08T04:39:26.030Z,57.81
2017-11-08T04:39:57.681Z,57.86
2017-11-08T04:40:29.325Z,57.96
2017-11-08T04:41:00.970Z,57.93
2017-11-08T04:41:32.621Z,57.97
2017-11-08T04:42:04.266Z,58.07
2017-11-08T04:42:35.913Z,58.10
2017-11-08T04:43:07.562Z,58.19
2017-11-08T04:43:39.213Z,58.24
2017-11-08T04:44:10.861Z,58.29
2017-11-08T04:44:42.757Z,58.27
2017-11-08T04:45:14.409Z,58.32
2017-11-08T04:45:46.061Z,58.25
2017-11-08T04:46:17.706Z,58.40
2017-11-08T04:46:49.635Z,58.47
2017-11-08T04:47:21.472Z,58.49
2017-11-08T04:47:53.230Z,58.55
2017-11-08T04:48:24.881Z,58.58
2017-11-08T04:48:56.529Z,58.59
2017-11-08T04:49:28.174Z,58.57
2017-11-08T04:49:59.821Z,58.69
2017-11-08T04:50:31.649Z,58.69
2017-11-08T04:51:03.301Z,58.70
2017-11-08T04:51:34.956Z,58.75
2017-11-08T04:52:06.661Z,58.76
2017-11-08T04:52:38.542Z,58.75
2017-11-08T04:53:10.252Z,58.73
2017-11-08T04:53:42.204Z,58.78
2017-11-08T04:54:13.854Z,58.81
2017-11-08T04:54:45.506Z,58.87
2017-11-08T04:55:17.161Z,58.92
2017-11-08T04:55:48.801Z,59.01
2017-11-08T04:56:20.445Z,59.07
2017-11-08T04:56:52.095Z,59.10
2017-11-08T04:57:23.749Z,59.13
2017-11-08T04:57:55.576Z,59.19
2017-11-08T04:58:27.292Z,59.18
2017-11-08T04:58:58.938Z,59.21
2017-11-08T04:59:30.590Z,59.24
2017-11-08T05:00:02.234Z,59.32
2017-11-08T05:00:33.885Z,59.37
2017-11-08T05:01:05.537Z,59.37
2017-11-08T05:01:37.191Z,59.48
2017-11-08T05:02:08.986Z,59.43
2017-11-08T05:02:40.736Z,59.43
2017-11-08T05:03:12.390Z,59.53
2017-11-08T05:03:44.050Z,59.57
2017-11-08T05:04:15.697Z,59.68
2017-11-08T05:04:47.608Z,59.69
2017-11-08T05:05:19.262Z,59.77
2017-11-08T05:05:52.254Z,59.81
2017-11-08T05:06:23.901Z,59.84
2017-11-08T05:06:55.709Z,59.93
2017-11-08T05:07:27.365Z,59.96
2017-11-08T05:07:59.300Z,60.04
2017-11-08T05:08:30.949Z,60.12
2017-11-08T05:09:02.602Z,60.24
2017-11-08T05:09:34.246Z,60.20
2017-11-08T05:10:05.890Z,60.23
2017-11-08T05:10:37.537Z,60.20
2017-11-08T05:11:09.186Z,60.21
2017-11-08T05:11:40.833Z,60.21
2017-11-08T05:12:12.481Z,60.21
2017-11-08T05:12:44.278Z,60.25
2017-11-08T05:13:16.026Z,60.24
2017-11-08T05:13:47.975Z,60.26
2017-11-08T05:14:19.666Z,60.31
2017-11-08T05:14:51.317Z,60.33
2017-11-08T05:15:22.965Z,60.41
2017-11-08T05:15:54.617Z,60.37
2017-11-08T05:16:26.492Z,60.36
2017-11-08T05:16:58.141Z,60.52
2017-11-08T05:17:29.975Z,60.40
2017-11-08T05:18:01.729Z,60.54
2017-11-08T05:18:33.384Z,60.57
2017-11-08T05:19:05.035Z,60.56
2017-11-08T05:19:36.959Z,60.61
2017-11-08T05:20:08.645Z,60.56
2017-11-08T05:20:40.293Z,60.63
2017-11-08T05:21:11.946Z,60.66
2017-11-08T05:21:43.833Z,60.75
2017-11-08T05:22:15.521Z,60.67
2017-11-08T05:22:47.174Z,60.61
2017-11-08T05:23:18.818Z,60.72
2017-11-08T05:23:50.460Z,60.62
2017-11-08T05:24:22.105Z,60.70
2017-11-08T05:24:53.807Z,60.75
2017-11-08T05:25:25.453Z,60.77
2017-11-08T05:25:57.098Z,60.79
2017-11-08T05:26:28.744Z,60.76
2017-11-08T05:27:00.389Z,60.81
2017-11-08T05:27:32.034Z,60.90
2017-11-08T05:28:03.681Z,60.88
2017-11-08T05:28:35.330Z,60.96
2017-11-08T05:29:06.981Z,60.83
2017-11-08T05:29:38.629Z,60.77
2017-11-08T05:30:10.317Z,60.77
2017-11-08T05:30:42.049Z,60.68
2017-11-08T05:31:14.002Z,60.61
2017-11-08T05:31:45.951Z,60.56
2017-11-08T05:32:17.899Z,60.53
2017-11-08T05:32:49.724Z,60.54
2017-11-08T05:33:21.490Z,60.49
2017-11-08T05:33:53.142Z,60.40
2017-11-08T05:34:25.079Z,60.36
2017-11-08T05:34:57.031Z,60.26
2017-11-08T05:35:28.685Z,60.24
2017-11-08T05:36:00.329Z,60.30
2017-11-08T05:36:31.974Z,60.34
2017-11-08T05:37:03.661Z,60.34
2017-11-08T05:37:35.548Z,60.26
2017-11-08T05:38:07.496Z,60.25
2017-11-08T05:38:39.447Z,60.28
2017-11-08T05:39:11.330Z,60.26
2017-11-08T05:39:42.974Z,60.23
2017-11-08T05:40:14.621Z,60.23
2017-11-08T05:40:46.520Z,60.26
2017-11-08T05:41:18.210Z,60.18
2017-11-08T05:41:49.860Z,60.16
2017-11-08T05:42:21.554Z,60.16
2017-11-08T05:42:53.201Z,60.10
2017-11-08T05:43:24.845Z,60.09
2017-11-08T05:43:56.497Z,60.09
2017-11-08T05:44:28.141Z,60.10
2017-11-08T05:44:59.786Z,60.05
2017-11-08T05:45:31.433Z,60.06
2017-11-08T05:46:03.082Z,60.01
2017-11-08T05:46:34.725Z,59.97
2017-11-08T05:47:06.638Z,59.96
2017-11-08T05:47:38.326Z,59.95
2017-11-08T05:48:09.981Z,59.97
2017-11-08T05:48:41.870Z,59.98
2017-11-08T05:49:13.561Z,59.92
2017-11-08T05:49:45.462Z,59.90
2017-11-08T05:50:17.115Z,59.93
2017-11-08T05:50:48.761Z,59.89
2017-11-08T05:51:20.412Z,59.86
2017-11-08T05:51:52.073Z,59.80
2017-11-08T05:52:23.725Z,59.77
2017-11-08T05:52:55.621Z,59.84
2017-11-08T05:53:27.285Z,59.78
2017-11-08T05:53:58.945Z,59.78
2017-11-08T05:54:30.836Z,59.80
2017-11-08T05:55:02.496Z,59.83
2017-11-08T05:55:34.146Z,59.77
2017-11-08T05:56:05.793Z,59.74
2017-11-08T05:56:37.444Z,59.71
2017-11-08T05:57:09.253Z,59.68
2017-11-08T05:57:41.012Z,59.70
2017-11-08T05:58:12.661Z,59.76
2017-11-08T05:58:44.310Z,59.77
2017-11-08T05:59:15.953Z,59.78
2017-11-08T05:59:47.650Z,59.81
2017-11-08T06:00:19.494Z,59.81
2017-11-08T06:00:51.166Z,59.82
2017-11-08T06:01:23.120Z,59.85
2017-11-08T06:01:54.769Z,59.83
2017-11-08T06:02:26.417Z,59.82
2017-11-08T06:02:58.066Z,59.80
2017-11-08T06:03:29.722Z,59.81
2017-11-08T06:04:01.374Z,59.75
2017-11-08T06:04:33.042Z,59.78
2017-11-08T06:05:04.733Z,59.80
2017-11-08T06:05:36.381Z,59.77
2017-11-08T06:06:08.033Z,59.80
2017-11-08T06:06:39.690Z,59.79
2017-11-08T06:07:11.346Z,59.81
2017-11-08T06:07:43.129Z,59.81
2017-11-08T06:08:14.776Z,59.78
2017-11-08T06:08:46.462Z,59.80
2017-11-08T06:09:18.114Z,59.81
2017-11-08T06:09:49.764Z,59.78
2017-11-08T06:10:21.646Z,59.79
2017-11-08T06:10:53.298Z,59.81
2017-11-08T06:11:24.946Z,59.80
2017-11-08T06:11:56.633Z,59.83
2017-11-08T06:12:28.484Z,59.82
2017-11-08T06:13:00.167Z,59.83
2017-11-08T06:13:31.817Z,59.84
2017-11-08T06:14:03.473Z,59.88
2017-11-08T06:14:35.117Z,59.88
2017-11-08T06:15:06.761Z,59.90
2017-11-08T06:15:38.405Z,59.92
2017-11-08T06:16:10.045Z,59.91
2017-11-08T06:16:41.964Z,59.97
2017-11-08T06:17:13.613Z,59.95
2017-11-08T06:17:45.262Z,59.99
2017-11-08T06:18:16.909Z,59.92
2017-11-08T06:18:48.556Z,59.91
2017-11-08T06:19:20.201Z,59.95
2017-11-08T06:19:51.846Z,60.00
2017-11-08T06:20:23.491Z,59.99
2017-11-08T06:20:55.138Z,59.97
2017-11-08T06:21:27.049Z,59.95
2017-11-08T06:21:58.930Z,59.97
2017-11-08T06:22:30.575Z,59.97
2017-11-08T06:23:02.217Z,60.00
2017-11-08T06:23:33.923Z,60.03
2017-11-08T06:24:05.573Z,60.04
2017-11-08T06:24:37.237Z,60.06
2017-11-08T06:25:08.914Z,60.06
2017-11-08T06:25:40.565Z,60.08
2017-11-08T06:26:12.397Z,60.07
2017-11-08T06:26:44.078Z,60.02
2017-11-08T06:27:16.030Z,60.07
2017-11-08T06:27:47.980Z,60.04
2017-11-08T06:28:19.629Z,60.05
2017-11-08T06:28:51.318Z,60.04
2017-11-08T06:29:23.016Z,60.04
2017-11-08T06:29:54.658Z,60.03
2017-11-08T06:30:26.302Z,60.01
2017-11-08T06:30:57.954Z,60.04
2017-11-08T06:31:29.602Z,59.99
2017-11-08T06:32:01.254Z,60.02
2017-11-08T06:32:32.900Z,60.07
2017-11-08T06:33:04.540Z,60.10
2017-11-08T06:33:36.181Z,60.09
2017-11-08T06:34:07.830Z,60.10
2017-11-08T06:34:39.633Z,60.11
2017-11-08T06:35:11.282Z,60.11
2017-11-08T06:35:42.934Z,60.10
2017-11-08T06:36:14.578Z,60.09
2017-11-08T06:36:46.226Z,60.10
2017-11-08T06:37:17.873Z,60.05
2017-11-08T06:37:49.521Z,60.14
2017-11-08T06:38:21.170Z,60.14
2017-11-08T06:38:52.820Z,60.14
2017-11-08T06:39:24.606Z,60.19
2017-11-08T06:39:56.358Z,60.25
2017-11-08T06:40:28.205Z,60.22
2017-11-08T06:40:59.852Z,60.24
2017-11-08T06:41:31.497Z,60.20
2017-11-08T06:42:03.146Z,60.22
2017-11-08T06:42:34.797Z,60.25
2017-11-08T06:43:06.441Z,60.29
2017-11-08T06:43:38.089Z,60.33
2017-11-08T06:44:09.733Z,60.33
2017-11-08T06:44:41.383Z,60.32
2017-11-08T06:45:13.284Z,60.34
2017-11-08T06:45:44.937Z,60.42
2017-11-08T06:46:16.580Z,60.39
2017-11-08T06:46:48.227Z,60.40
2017-11-08T06:47:19.884Z,60.42
2017-11-08T06:47:51.535Z,60.38
2017-11-08T06:48:23.190Z,60.36
2017-11-08T06:48:54.842Z,60.41
2017-11-08T06:49:26.526Z,60.39
2017-11-08T06:49:58.222Z,60.42
2017-11-08T06:50:32.517Z,60.39